Current Weather

Yakutsk

Yakutsk, Russia (UEEE)

Report from: Monday, February 6, 2023 2:00 PM JST
Current time: Monday, February 6, 2023 2:37 PM JST

Nearby weather
Weather history
Weather forecast

Present weatherMist
Temperature-39.0°C (-38.2°F)
Wind chill-47.9°C (-54.2°F)
Dew point-42.0°C (-43.6°F)
Winds 3.9 kts (2 m/s, 4.5 mph) South-Southeast (160°)
Visibility3.1 mi. (5 km)
Altimeter30.24 in.Hg (1024 mB)
Precip. events QF 1:39 AM
Relative humidity73 %
Density altitude-7,624 ft. (-2,324 m)
Remarks No significant changes expected in the next two hours
Flight conditions Marginal Visual Meteorological Conditions
Raw dataUEEE 060500Z 16002MPS 5000 BR NSC M39/M42 Q1024 R23L/490150 NOSIG RMK QFE759
An error has occurred. This application may no longer respond until reloaded. Reload 🗙